sensor_id;sensor_type;location;lat;lon;timestamp;P1;durP1;ratioP1;P2;durP2;ratioP2
74108;SDS011;62466;47.566;7.786;2022-10-16T00:01:45;4.28;;;2.67;;
74108;SDS011;62466;47.566;7.786;2022-10-16T00:04:11;5.70;;;3.42;;
74108;SDS011;62466;47.566;7.786;2022-10-16T00:06:37;5.32;;;3.42;;
74108;SDS011;62466;47.566;7.786;2022-10-16T00:09:03;5.10;;;3.53;;
74108;SDS011;62466;47.566;7.786;2022-10-16T00:11:30;4.65;;;3.47;;
74108;SDS011;62466;47.566;7.786;2022-10-16T00:14:02;4.53;;;2.60;;
74108;SDS011;62466;47.566;7.786;2022-10-16T00:16:32;3.58;;;2.67;;
74108;SDS011;62466;47.566;7.786;2022-10-16T00:18:58;5.32;;;3.08;;
74108;SDS011;62466;47.566;7.786;2022-10-16T00:21:25;4.78;;;3.22;;
74108;SDS011;62466;47.566;7.786;2022-10-16T00:23:53;4.22;;;2.80;;
74108;SDS011;62466;47.566;7.786;2022-10-16T00:26:20;4.18;;;2.50;;
74108;SDS011;62466;47.566;7.786;2022-10-16T00:28:47;4.65;;;2.53;;
74108;SDS011;62466;47.566;7.786;2022-10-16T00:31:13;9.15;;;2.53;;
74108;SDS011;62466;47.566;7.786;2022-10-16T00:33:39;4.22;;;3.22;;
74108;SDS011;62466;47.566;7.786;2022-10-16T00:36:06;3.50;;;2.40;;
74108;SDS011;62466;47.566;7.786;2022-10-16T00:38:33;2.63;;;2.22;;
74108;SDS011;62466;47.566;7.786;2022-10-16T00:40:59;3.97;;;2.42;;
74108;SDS011;62466;47.566;7.786;2022-10-16T00:46:10;4.38;;;2.42;;
74108;SDS011;62466;47.566;7.786;2022-10-16T00:51:06;3.97;;;2.42;;
74108;SDS011;62466;47.566;7.786;2022-10-16T00:53:32;6.70;;;2.47;;
74108;SDS011;62466;47.566;7.786;2022-10-16T00:55:58;7.60;;;2.72;;
74108;SDS011;62466;47.566;7.786;2022-10-16T00:58:24;5.05;;;2.45;;
74108;SDS011;62466;47.566;7.786;2022-10-16T01:00:50;4.40;;;2.50;;
74108;SDS011;62466;47.566;7.786;2022-10-16T01:03:32;4.82;;;2.30;;
74108;SDS011;62466;47.566;7.786;2022-10-16T01:08:31;4.50;;;2.25;;
74108;SDS011;62466;47.566;7.786;2022-10-16T01:11:07;4.80;;;2.47;;
74108;SDS011;62466;47.566;7.786;2022-10-16T01:13:44;2.92;;;2.50;;
74108;SDS011;62466;47.566;7.786;2022-10-16T01:19:01;4.43;;;2.95;;
74108;SDS011;62466;47.566;7.786;2022-10-16T01:21:36;4.72;;;2.60;;
74108;SDS011;62466;47.566;7.786;2022-10-16T01:29:36;3.97;;;2.53;;
74108;SDS011;62466;47.566;7.786;2022-10-16T01:35:00;4.57;;;3.47;;
74108;SDS011;62466;47.566;7.786;2022-10-16T01:37:40;6.07;;;3.75;;
74108;SDS011;62466;47.566;7.786;2022-10-16T01:40:14;6.28;;;3.75;;
74108;SDS011;62466;47.566;7.786;2022-10-16T01:42:42;6.18;;;3.95;;
74108;SDS011;62466;47.566;7.786;2022-10-16T01:45:12;8.32;;;3.65;;
74108;SDS011;62466;47.566;7.786;2022-10-16T01:47:39;6.80;;;2.78;;
74108;SDS011;62466;47.566;7.786;2022-10-16T01:50:06;3.00;;;2.30;;
74108;SDS011;62466;47.566;7.786;2022-10-16T01:52:37;3.88;;;2.13;;
74108;SDS011;62466;47.566;7.786;2022-10-16T01:55:04;2.47;;;2.05;;
74108;SDS011;62466;47.566;7.786;2022-10-16T01:57:31;4.38;;;2.22;;
74108;SDS011;62466;47.566;7.786;2022-10-16T02:00:01;3.42;;;2.13;;
74108;SDS011;62466;47.566;7.786;2022-10-16T02:02:37;3.08;;;2.40;;
74108;SDS011;62466;47.566;7.786;2022-10-16T02:07:56;3.63;;;2.83;;
74108;SDS011;62466;47.566;7.786;2022-10-16T02:10:22;4.32;;;2.65;;
74108;SDS011;62466;47.566;7.786;2022-10-16T02:12:56;6.30;;;2.35;;
74108;SDS011;62466;47.566;7.786;2022-10-16T02:15:25;5.10;;;2.80;;
74108;SDS011;62466;47.566;7.786;2022-10-16T02:17:51;3.03;;;2.47;;
74108;SDS011;62466;47.566;7.786;2022-10-16T02:20:16;5.03;;;2.55;;
74108;SDS011;62466;47.566;7.786;2022-10-16T02:22:43;4.03;;;2.70;;
74108;SDS011;62466;47.566;7.786;2022-10-16T02:27:49;6.65;;;2.22;;
74108;SDS011;62466;47.566;7.786;2022-10-16T02:30:36;4.30;;;2.22;;
74108;SDS011;62466;47.566;7.786;2022-10-16T02:33:07;2.28;;;2.08;;
74108;SDS011;62466;47.566;7.786;2022-10-16T02:35:35;1.80;;;1.70;;
74108;SDS011;62466;47.566;7.786;2022-10-16T02:38:01;1.70;;;1.60;;
74108;SDS011;62466;47.566;7.786;2022-10-16T02:40:27;4.72;;;1.85;;
74108;SDS011;62466;47.566;7.786;2022-10-16T02:42:54;2.85;;;2.00;;
74108;SDS011;62466;47.566;7.786;2022-10-16T02:45:20;12.30;;;3.38;;
74108;SDS011;62466;47.566;7.786;2022-10-16T02:47:46;3.50;;;2.00;;
74108;SDS011;62466;47.566;7.786;2022-10-16T02:50:12;2.03;;;1.83;;
74108;SDS011;62466;47.566;7.786;2022-10-16T02:52:37;2.35;;;2.15;;
74108;SDS011;62466;47.566;7.786;2022-10-16T02:55:03;1.77;;;1.67;;
74108;SDS011;62466;47.566;7.786;2022-10-16T02:57:29;2.85;;;2.25;;
74108;SDS011;62466;47.566;7.786;2022-10-16T02:59:55;4.03;;;1.90;;
74108;SDS011;62466;47.566;7.786;2022-10-16T03:02:20;2.22;;;1.80;;
74108;SDS011;62466;47.566;7.786;2022-10-16T03:04:46;3.22;;;2.22;;
74108;SDS011;62466;47.566;7.786;2022-10-16T03:07:12;3.28;;;2.50;;
74108;SDS011;62466;47.566;7.786;2022-10-16T03:09:37;6.90;;;2.70;;
74108;SDS011;62466;47.566;7.786;2022-10-16T03:12:03;3.35;;;2.50;;
74108;SDS011;62466;47.566;7.786;2022-10-16T03:14:29;4.88;;;2.60;;
74108;SDS011;62466;47.566;7.786;2022-10-16T03:16:54;8.63;;;4.57;;
74108;SDS011;62466;47.566;7.786;2022-10-16T03:19:20;6.35;;;3.50;;
74108;SDS011;62466;47.566;7.786;2022-10-16T03:21:46;5.97;;;3.10;;
74108;SDS011;62466;47.566;7.786;2022-10-16T03:24:11;7.07;;;2.70;;
74108;SDS011;62466;47.566;7.786;2022-10-16T03:26:37;5.95;;;2.92;;
74108;SDS011;62466;47.566;7.786;2022-10-16T03:29:03;3.97;;;3.42;;
74108;SDS011;62466;47.566;7.786;2022-10-16T03:31:29;5.65;;;3.42;;
74108;SDS011;62466;47.566;7.786;2022-10-16T03:33:55;4.25;;;2.88;;
74108;SDS011;62466;47.566;7.786;2022-10-16T03:36:21;2.97;;;2.00;;
74108;SDS011;62466;47.566;7.786;2022-10-16T03:38:47;5.10;;;2.13;;
74108;SDS011;62466;47.566;7.786;2022-10-16T03:41:12;4.13;;;2.47;;
74108;SDS011;62466;47.566;7.786;2022-10-16T03:43:38;2.95;;;1.95;;
74108;SDS011;62466;47.566;7.786;2022-10-16T03:46:04;2.42;;;2.15;;
74108;SDS011;62466;47.566;7.786;2022-10-16T03:48:29;5.53;;;3.03;;
74108;SDS011;62466;47.566;7.786;2022-10-16T03:50:55;2.88;;;2.20;;
74108;SDS011;62466;47.566;7.786;2022-10-16T03:53:21;4.15;;;2.92;;
74108;SDS011;62466;47.566;7.786;2022-10-16T03:55:47;6.68;;;2.15;;
74108;SDS011;62466;47.566;7.786;2022-10-16T03:58:12;3.83;;;2.38;;
74108;SDS011;62466;47.566;7.786;2022-10-16T04:00:41;6.40;;;3.00;;
74108;SDS011;62466;47.566;7.786;2022-10-16T04:03:07;3.38;;;3.08;;
74108;SDS011;62466;47.566;7.786;2022-10-16T04:05:33;4.38;;;2.40;;
74108;SDS011;62466;47.566;7.786;2022-10-16T04:07:59;2.63;;;2.20;;
74108;SDS011;62466;47.566;7.786;2022-10-16T04:10:24;3.85;;;2.92;;
74108;SDS011;62466;47.566;7.786;2022-10-16T04:12:50;2.92;;;2.08;;
74108;SDS011;62466;47.566;7.786;2022-10-16T04:15:16;2.30;;;2.10;;
74108;SDS011;62466;47.566;7.786;2022-10-16T04:17:41;6.30;;;2.50;;
74108;SDS011;62466;47.566;7.786;2022-10-16T04:20:07;2.13;;;1.92;;
74108;SDS011;62466;47.566;7.786;2022-10-16T04:22:33;3.67;;;2.50;;
74108;SDS011;62466;47.566;7.786;2022-10-16T04:24:59;6.93;;;3.28;;
74108;SDS011;62466;47.566;7.786;2022-10-16T04:27:24;3.55;;;2.55;;
74108;SDS011;62466;47.566;7.786;2022-10-16T04:29:50;4.82;;;2.35;;
74108;SDS011;62466;47.566;7.786;2022-10-16T04:32:16;4.28;;;2.65;;
74108;SDS011;62466;47.566;7.786;2022-10-16T04:34:41;2.63;;;2.42;;
74108;SDS011;62466;47.566;7.786;2022-10-16T04:37:07;7.15;;;2.63;;
74108;SDS011;62466;47.566;7.786;2022-10-16T04:39:32;3.35;;;2.17;;
74108;SDS011;62466;47.566;7.786;2022-10-16T04:41:58;6.05;;;2.60;;
74108;SDS011;62466;47.566;7.786;2022-10-16T04:44:24;2.90;;;2.60;;
74108;SDS011;62466;47.566;7.786;2022-10-16T04:46:52;3.63;;;2.20;;
74108;SDS011;62466;47.566;7.786;2022-10-16T04:49:18;2.20;;;2.00;;
74108;SDS011;62466;47.566;7.786;2022-10-16T04:51:43;7.50;;;2.05;;
74108;SDS011;62466;47.566;7.786;2022-10-16T04:54:09;4.10;;;2.15;;
74108;SDS011;62466;47.566;7.786;2022-10-16T04:56:35;9.68;;;2.63;;
74108;SDS011;62466;47.566;7.786;2022-10-16T04:59:08;3.17;;;2.33;;
74108;SDS011;62466;47.566;7.786;2022-10-16T05:01:34;5.72;;;2.72;;
74108;SDS011;62466;47.566;7.786;2022-10-16T05:04:00;4.05;;;2.20;;
74108;SDS011;62466;47.566;7.786;2022-10-16T05:06:25;3.78;;;2.05;;
74108;SDS011;62466;47.566;7.786;2022-10-16T05:08:51;3.28;;;2.58;;
74108;SDS011;62466;47.566;7.786;2022-10-16T05:11:17;2.85;;;2.33;;
74108;SDS011;62466;47.566;7.786;2022-10-16T05:13:42;7.95;;;2.30;;
74108;SDS011;62466;47.566;7.786;2022-10-16T05:16:08;3.70;;;2.30;;
74108;SDS011;62466;47.566;7.786;2022-10-16T05:18:33;4.00;;;2.85;;
74108;SDS011;62466;47.566;7.786;2022-10-16T05:20:59;3.78;;;2.65;;
74108;SDS011;62466;47.566;7.786;2022-10-16T05:23:24;4.85;;;2.60;;
74108;SDS011;62466;47.566;7.786;2022-10-16T05:25:53;3.40;;;2.88;;
74108;SDS011;62466;47.566;7.786;2022-10-16T05:28:20;3.75;;;3.45;;
74108;SDS011;62466;47.566;7.786;2022-10-16T05:30:46;4.63;;;3.20;;
74108;SDS011;62466;47.566;7.786;2022-10-16T05:33:11;3.80;;;2.72;;
74108;SDS011;62466;47.566;7.786;2022-10-16T05:35:37;2.50;;;2.30;;
74108;SDS011;62466;47.566;7.786;2022-10-16T05:38:02;2.90;;;2.70;;
74108;SDS011;62466;47.566;7.786;2022-10-16T05:40:28;3.25;;;2.47;;
74108;SDS011;62466;47.566;7.786;2022-10-16T05:42:56;4.55;;;2.72;;
74108;SDS011;62466;47.566;7.786;2022-10-16T05:45:22;2.17;;;1.98;;
74108;SDS011;62466;47.566;7.786;2022-10-16T05:47:47;2.58;;;2.00;;
74108;SDS011;62466;47.566;7.786;2022-10-16T05:50:13;2.08;;;1.88;;
74108;SDS011;62466;47.566;7.786;2022-10-16T05:52:39;4.22;;;2.15;;
74108;SDS011;62466;47.566;7.786;2022-10-16T05:55:04;2.50;;;2.30;;
74108;SDS011;62466;47.566;7.786;2022-10-16T05:57:30;2.83;;;2.20;;
74108;SDS011;62466;47.566;7.786;2022-10-16T05:59:56;3.03;;;2.40;;
74108;SDS011;62466;47.566;7.786;2022-10-16T06:02:22;2.97;;;2.67;;
74108;SDS011;62466;47.566;7.786;2022-10-16T06:04:47;5.65;;;2.35;;
74108;SDS011;62466;47.566;7.786;2022-10-16T06:07:13;1.70;;;1.60;;
74108;SDS011;62466;47.566;7.786;2022-10-16T06:09:38;4.72;;;2.20;;
74108;SDS011;62466;47.566;7.786;2022-10-16T06:12:04;4.82;;;2.20;;
74108;SDS011;62466;47.566;7.786;2022-10-16T06:14:29;2.95;;;2.20;;
74108;SDS011;62466;47.566;7.786;2022-10-16T06:16:55;3.55;;;2.50;;
74108;SDS011;62466;47.566;7.786;2022-10-16T06:19:20;3.47;;;3.17;;
74108;SDS011;62466;47.566;7.786;2022-10-16T06:21:46;4.43;;;3.08;;
74108;SDS011;62466;47.566;7.786;2022-10-16T06:24:12;5.57;;;2.90;;
74108;SDS011;62466;47.566;7.786;2022-10-16T06:26:40;8.25;;;3.10;;
74108;SDS011;62466;47.566;7.786;2022-10-16T06:29:07;3.40;;;2.97;;
74108;SDS011;62466;47.566;7.786;2022-10-16T06:31:33;3.00;;;2.70;;
74108;SDS011;62466;47.566;7.786;2022-10-16T06:33:59;2.90;;;2.60;;
74108;SDS011;62466;47.566;7.786;2022-10-16T06:36:25;5.38;;;2.80;;
74108;SDS011;62466;47.566;7.786;2022-10-16T06:38:51;2.60;;;2.33;;
74108;SDS011;62466;47.566;7.786;2022-10-16T06:41:18;4.40;;;2.17;;
74108;SDS011;62466;47.566;7.786;2022-10-16T06:43:45;5.82;;;2.83;;
74108;SDS011;62466;47.566;7.786;2022-10-16T06:46:11;4.90;;;2.22;;
74108;SDS011;62466;47.566;7.786;2022-10-16T06:48:38;3.60;;;2.47;;
74108;SDS011;62466;47.566;7.786;2022-10-16T06:51:11;4.10;;;2.67;;
74108;SDS011;62466;47.566;7.786;2022-10-16T06:53:39;3.92;;;2.97;;
74108;SDS011;62466;47.566;7.786;2022-10-16T06:56:10;4.22;;;2.58;;
74108;SDS011;62466;47.566;7.786;2022-10-16T06:58:37;4.13;;;3.00;;
74108;SDS011;62466;47.566;7.786;2022-10-16T07:01:03;4.95;;;3.20;;
74108;SDS011;62466;47.566;7.786;2022-10-16T07:03:29;3.55;;;2.83;;
74108;SDS011;62466;47.566;7.786;2022-10-16T07:05:55;4.20;;;3.03;;
74108;SDS011;62466;47.566;7.786;2022-10-16T07:08:21;3.00;;;2.22;;
74108;SDS011;62466;47.566;7.786;2022-10-16T07:10:47;7.38;;;2.90;;
74108;SDS011;62466;47.566;7.786;2022-10-16T07:13:12;6.88;;;2.10;;
74108;SDS011;62466;47.566;7.786;2022-10-16T07:15:39;2.55;;;2.10;;
74108;SDS011;62466;47.566;7.786;2022-10-16T07:18:05;4.05;;;2.47;;
74108;SDS011;62466;47.566;7.786;2022-10-16T07:20:31;6.93;;;2.83;;
74108;SDS011;62466;47.566;7.786;2022-10-16T07:22:56;2.95;;;2.50;;
74108;SDS011;62466;47.566;7.786;2022-10-16T07:25:22;4.75;;;2.70;;
74108;SDS011;62466;47.566;7.786;2022-10-16T07:27:48;2.50;;;2.25;;
74108;SDS011;62466;47.566;7.786;2022-10-16T07:30:13;3.10;;;2.53;;
74108;SDS011;62466;47.566;7.786;2022-10-16T07:32:39;3.50;;;2.60;;
74108;SDS011;62466;47.566;7.786;2022-10-16T07:35:05;4.90;;;2.35;;
74108;SDS011;62466;47.566;7.786;2022-10-16T07:37:31;2.72;;;1.98;;
74108;SDS011;62466;47.566;7.786;2022-10-16T07:39:57;2.40;;;1.85;;
74108;SDS011;62466;47.566;7.786;2022-10-16T07:42:22;4.78;;;2.50;;
74108;SDS011;62466;47.566;7.786;2022-10-16T07:44:48;3.55;;;2.30;;
74108;SDS011;62466;47.566;7.786;2022-10-16T07:47:13;5.13;;;2.70;;
74108;SDS011;62466;47.566;7.786;2022-10-16T07:49:39;4.20;;;2.85;;
74108;SDS011;62466;47.566;7.786;2022-10-16T07:52:05;4.85;;;2.00;;
74108;SDS011;62466;47.566;7.786;2022-10-16T07:54:33;6.15;;;2.10;;
74108;SDS011;62466;47.566;7.786;2022-10-16T07:56:59;3.60;;;2.47;;
74108;SDS011;62466;47.566;7.786;2022-10-16T07:59:24;3.70;;;1.77;;
74108;SDS011;62466;47.566;7.786;2022-10-16T08:01:50;4.32;;;2.30;;
74108;SDS011;62466;47.566;7.786;2022-10-16T08:04:16;5.57;;;2.40;;
74108;SDS011;62466;47.566;7.786;2022-10-16T08:06:41;2.95;;;1.90;;
74108;SDS011;62466;47.566;7.786;2022-10-16T08:09:07;4.55;;;2.15;;
74108;SDS011;62466;47.566;7.786;2022-10-16T08:11:33;2.58;;;1.88;;
74108;SDS011;62466;47.566;7.786;2022-10-16T08:13:59;5.28;;;2.17;;
74108;SDS011;62466;47.566;7.786;2022-10-16T08:16:24;3.15;;;1.88;;
74108;SDS011;62466;47.566;7.786;2022-10-16T08:18:53;8.23;;;1.83;;
74108;SDS011;62466;47.566;7.786;2022-10-16T08:21:20;3.20;;;1.90;;
74108;SDS011;62466;47.566;7.786;2022-10-16T08:23:48;2.28;;;2.03;;
74108;SDS011;62466;47.566;7.786;2022-10-16T08:26:15;3.83;;;1.95;;
74108;SDS011;62466;47.566;7.786;2022-10-16T08:28:40;4.60;;;1.90;;
74108;SDS011;62466;47.566;7.786;2022-10-16T08:33:34;1.90;;;1.38;;
74108;SDS011;62466;47.566;7.786;2022-10-16T08:36:00;4.35;;;1.58;;
74108;SDS011;62466;47.566;7.786;2022-10-16T08:38:35;1.38;;;1.20;;
74108;SDS011;62466;47.566;7.786;2022-10-16T08:46:22;2.58;;;1.17;;
74108;SDS011;62466;47.566;7.786;2022-10-16T08:48:51;6.38;;;3.10;;
74108;SDS011;62466;47.566;7.786;2022-10-16T08:51:22;2.45;;;1.30;;
74108;SDS011;62466;47.566;7.786;2022-10-16T08:53:52;3.05;;;1.10;;
74108;SDS011;62466;47.566;7.786;2022-10-16T08:56:19;2.50;;;1.52;;
74108;SDS011;62466;47.566;7.786;2022-10-16T08:58:45;3.22;;;2.20;;
74108;SDS011;62466;47.566;7.786;2022-10-16T09:01:16;2.40;;;1.08;;
74108;SDS011;62466;47.566;7.786;2022-10-16T09:17:37;1.90;;;1.33;;
74108;SDS011;62466;47.566;7.786;2022-10-16T09:20:14;3.40;;;1.27;;
74108;SDS011;62466;47.566;7.786;2022-10-16T09:25:29;3.10;;;1.60;;
74108;SDS011;62466;47.566;7.786;2022-10-16T09:27:54;1.65;;;1.35;;
74108;SDS011;62466;47.566;7.786;2022-10-16T09:30:21;1.98;;;1.30;;
74108;SDS011;62466;47.566;7.786;2022-10-16T09:32:49;3.17;;;1.63;;
74108;SDS011;62466;47.566;7.786;2022-10-16T09:35:20;2.78;;;1.23;;
74108;SDS011;62466;47.566;7.786;2022-10-16T09:37:50;1.83;;;1.45;;
74108;SDS011;62466;47.566;7.786;2022-10-16T09:40:26;3.05;;;1.35;;
74108;SDS011;62466;47.566;7.786;2022-10-16T09:43:42;1.85;;;1.40;;
74108;SDS011;62466;47.566;7.786;2022-10-16T09:46:04;2.45;;;1.30;;
74108;SDS011;62466;47.566;7.786;2022-10-16T09:48:43;2.88;;;1.70;;
74108;SDS011;62466;47.566;7.786;2022-10-16T09:56:34;2.10;;;1.20;;
74108;SDS011;62466;47.566;7.786;2022-10-16T09:59:13;5.72;;;1.98;;
74108;SDS011;62466;47.566;7.786;2022-10-16T10:01:41;4.93;;;1.42;;
74108;SDS011;62466;47.566;7.786;2022-10-16T10:04:09;1.90;;;1.17;;
74108;SDS011;62466;47.566;7.786;2022-10-16T10:06:45;3.70;;;1.80;;
74108;SDS011;62466;47.566;7.786;2022-10-16T10:22:52;3.38;;;1.20;;
74108;SDS011;62466;47.566;7.786;2022-10-16T10:25:31;2.67;;;1.73;;
74108;SDS011;62466;47.566;7.786;2022-10-16T10:28:04;3.15;;;1.27;;
74108;SDS011;62466;47.566;7.786;2022-10-16T10:39:00;3.22;;;1.65;;
74108;SDS011;62466;47.566;7.786;2022-10-16T10:44:50;9.13;;;1.77;;
74108;SDS011;62466;47.566;7.786;2022-10-16T11:03:53;1.58;;;1.30;;
74108;SDS011;62466;47.566;7.786;2022-10-16T11:06:44;2.88;;;1.20;;
74108;SDS011;62466;47.566;7.786;2022-10-16T11:11:56;2.65;;;1.02;;
74108;SDS011;62466;47.566;7.786;2022-10-16T11:14:26;2.28;;;1.10;;
74108;SDS011;62466;47.566;7.786;2022-10-16T11:16:56;3.28;;;0.93;;
74108;SDS011;62466;47.566;7.786;2022-10-16T11:22:01;4.93;;;1.10;;
74108;SDS011;62466;47.566;7.786;2022-10-16T11:30:28;2.17;;;1.48;;
74108;SDS011;62466;47.566;7.786;2022-10-16T11:38:09;3.00;;;1.20;;
74108;SDS011;62466;47.566;7.786;2022-10-16T11:40:38;2.58;;;1.20;;
74108;SDS011;62466;47.566;7.786;2022-10-16T11:43:13;3.13;;;1.30;;
74108;SDS011;62466;47.566;7.786;2022-10-16T11:45:43;4.03;;;1.42;;
74108;SDS011;62466;47.566;7.786;2022-10-16T11:48:16;1.85;;;1.30;;
74108;SDS011;62466;47.566;7.786;2022-10-16T11:53:54;2.38;;;1.05;;
74108;SDS011;62466;47.566;7.786;2022-10-16T11:56:38;3.13;;;1.23;;
74108;SDS011;62466;47.566;7.786;2022-10-16T11:59:13;3.92;;;1.15;;
74108;SDS011;62466;47.566;7.786;2022-10-16T12:01:47;3.22;;;1.25;;
74108;SDS011;62466;47.566;7.786;2022-10-16T12:07:06;4.78;;;1.88;;
74108;SDS011;62466;47.566;7.786;2022-10-16T12:09:38;3.33;;;1.25;;
74108;SDS011;62466;47.566;7.786;2022-10-16T12:12:22;2.67;;;1.30;;
74108;SDS011;62466;47.566;7.786;2022-10-16T12:15:00;1.00;;;1.00;;
74108;SDS011;62466;47.566;7.786;2022-10-16T12:17:46;1.27;;;1.17;;
74108;SDS011;62466;47.566;7.786;2022-10-16T12:22:42;3.72;;;2.03;;
74108;SDS011;62466;47.566;7.786;2022-10-16T12:25:37;3.88;;;1.25;;
74108;SDS011;62466;47.566;7.786;2022-10-16T12:30:40;1.67;;;1.45;;
74108;SDS011;62466;47.566;7.786;2022-10-16T12:33:17;2.17;;;1.98;;
74108;SDS011;62466;47.566;7.786;2022-10-16T12:35:48;4.88;;;1.55;;
74108;SDS011;62466;47.566;7.786;2022-10-16T12:38:27;2.53;;;1.60;;
74108;SDS011;62466;47.566;7.786;2022-10-16T12:41:12;2.90;;;1.90;;
74108;SDS011;62466;47.566;7.786;2022-10-16T12:43:56;2.28;;;2.08;;
74108;SDS011;62466;47.566;7.786;2022-10-16T12:46:23;3.70;;;2.08;;
74108;SDS011;62466;47.566;7.786;2022-10-16T12:51:41;3.25;;;1.42;;
74108;SDS011;62466;47.566;7.786;2022-10-16T13:10:17;3.03;;;1.30;;
74108;SDS011;62466;47.566;7.786;2022-10-16T13:13:04;1.83;;;1.13;;
74108;SDS011;62466;47.566;7.786;2022-10-16T13:24:36;2.30;;;1.20;;
74108;SDS011;62466;47.566;7.786;2022-10-16T13:30:08;4.45;;;1.85;;
74108;SDS011;62466;47.566;7.786;2022-10-16T13:32:36;1.83;;;1.30;;
74108;SDS011;62466;47.566;7.786;2022-10-16T13:35:01;2.33;;;1.45;;
74108;SDS011;62466;47.566;7.786;2022-10-16T13:37:29;4.65;;;1.30;;
74108;SDS011;62466;47.566;7.786;2022-10-16T13:42:46;5.63;;;1.10;;
74108;SDS011;62466;47.566;7.786;2022-10-16T13:45:18;1.65;;;1.00;;
74108;SDS011;62466;47.566;7.786;2022-10-16T13:47:45;1.60;;;1.20;;
74108;SDS011;62466;47.566;7.786;2022-10-16T13:50:11;1.35;;;1.00;;
74108;SDS011;62466;47.566;7.786;2022-10-16T13:52:39;2.08;;;0.90;;
74108;SDS011;62466;47.566;7.786;2022-10-16T13:55:13;3.63;;;1.42;;
74108;SDS011;62466;47.566;7.786;2022-10-16T13:57:39;1.25;;;0.98;;
74108;SDS011;62466;47.566;7.786;2022-10-16T14:00:26;2.83;;;1.25;;
74108;SDS011;62466;47.566;7.786;2022-10-16T14:03:28;1.40;;;0.90;;
74108;SDS011;62466;47.566;7.786;2022-10-16T14:05:47;1.45;;;1.20;;
74108;SDS011;62466;47.566;7.786;2022-10-16T14:08:17;2.42;;;1.00;;
74108;SDS011;62466;47.566;7.786;2022-10-16T14:10:46;1.52;;;1.00;;
74108;SDS011;62466;47.566;7.786;2022-10-16T14:13:15;2.70;;;1.00;;
74108;SDS011;62466;47.566;7.786;2022-10-16T14:15:45;3.00;;;1.67;;
74108;SDS011;62466;47.566;7.786;2022-10-16T14:18:17;2.47;;;1.02;;
74108;SDS011;62466;47.566;7.786;2022-10-16T14:20:45;2.33;;;1.27;;
74108;SDS011;62466;47.566;7.786;2022-10-16T14:23:21;1.42;;;0.80;;
74108;SDS011;62466;47.566;7.786;2022-10-16T14:25:48;3.58;;;1.17;;
74108;SDS011;62466;47.566;7.786;2022-10-16T14:28:15;2.55;;;1.25;;
74108;SDS011;62466;47.566;7.786;2022-10-16T14:31:22;1.50;;;1.40;;
74108;SDS011;62466;47.566;7.786;2022-10-16T14:33:49;6.10;;;1.88;;
74108;SDS011;62466;47.566;7.786;2022-10-16T14:36:15;4.78;;;1.77;;
74108;SDS011;62466;47.566;7.786;2022-10-16T14:39:28;3.63;;;2.00;;
74108;SDS011;62466;47.566;7.786;2022-10-16T14:41:45;4.57;;;2.22;;
74108;SDS011;62466;47.566;7.786;2022-10-16T14:44:12;2.40;;;2.10;;
74108;SDS011;62466;47.566;7.786;2022-10-16T14:46:39;7.10;;;2.95;;
74108;SDS011;62466;47.566;7.786;2022-10-16T14:51:35;1.98;;;1.70;;
74108;SDS011;62466;47.566;7.786;2022-10-16T14:54:02;2.53;;;2.13;;
74108;SDS011;62466;47.566;7.786;2022-10-16T14:56:29;2.20;;;2.00;;
74108;SDS011;62466;47.566;7.786;2022-10-16T14:59:16;2.10;;;2.00;;
74108;SDS011;62466;47.566;7.786;2022-10-16T15:01:44;2.60;;;2.40;;
74108;SDS011;62466;47.566;7.786;2022-10-16T15:04:11;3.45;;;2.40;;
74108;SDS011;62466;47.566;7.786;2022-10-16T15:06:37;3.22;;;1.70;;
74108;SDS011;62466;47.566;7.786;2022-10-16T15:09:03;2.17;;;1.40;;
74108;SDS011;62466;47.566;7.786;2022-10-16T15:11:28;3.85;;;1.60;;
74108;SDS011;62466;47.566;7.786;2022-10-16T15:13:54;1.90;;;1.50;;
74108;SDS011;62466;47.566;7.786;2022-10-16T15:16:20;1.63;;;1.27;;
74108;SDS011;62466;47.566;7.786;2022-10-16T15:18:45;2.08;;;1.52;;
74108;SDS011;62466;47.566;7.786;2022-10-16T15:21:16;2.33;;;1.30;;
74108;SDS011;62466;47.566;7.786;2022-10-16T15:23:51;4.10;;;1.30;;
74108;SDS011;62466;47.566;7.786;2022-10-16T15:26:17;1.75;;;1.20;;
74108;SDS011;62466;47.566;7.786;2022-10-16T15:28:42;1.65;;;1.20;;
74108;SDS011;62466;47.566;7.786;2022-10-16T15:31:08;2.65;;;1.13;;
74108;SDS011;62466;47.566;7.786;2022-10-16T15:33:37;1.63;;;1.52;;
74108;SDS011;62466;47.566;7.786;2022-10-16T15:36:02;2.38;;;1.40;;
74108;SDS011;62466;47.566;7.786;2022-10-16T15:38:28;1.98;;;1.35;;
74108;SDS011;62466;47.566;7.786;2022-10-16T15:40:55;1.83;;;1.55;;
74108;SDS011;62466;47.566;7.786;2022-10-16T15:43:21;4.05;;;1.50;;
74108;SDS011;62466;47.566;7.786;2022-10-16T15:46:03;2.42;;;1.80;;
74108;SDS011;62466;47.566;7.786;2022-10-16T15:48:31;1.65;;;1.40;;
74108;SDS011;62466;47.566;7.786;2022-10-16T15:50:59;2.80;;;2.00;;
74108;SDS011;62466;47.566;7.786;2022-10-16T15:53:25;3.60;;;1.75;;
74108;SDS011;62466;47.566;7.786;2022-10-16T15:55:51;4.30;;;1.98;;
74108;SDS011;62466;47.566;7.786;2022-10-16T15:58:16;2.00;;;1.80;;
74108;SDS011;62466;47.566;7.786;2022-10-16T16:00:43;1.90;;;1.58;;
74108;SDS011;62466;47.566;7.786;2022-10-16T16:03:09;6.65;;;2.28;;
74108;SDS011;62466;47.566;7.786;2022-10-16T16:05:37;4.22;;;1.50;;
74108;SDS011;62466;47.566;7.786;2022-10-16T16:08:04;3.03;;;1.60;;
74108;SDS011;62466;47.566;7.786;2022-10-16T16:10:29;2.25;;;1.92;;
74108;SDS011;62466;47.566;7.786;2022-10-16T16:12:55;5.22;;;1.73;;
74108;SDS011;62466;47.566;7.786;2022-10-16T16:15:21;2.00;;;1.10;;
74108;SDS011;62466;47.566;7.786;2022-10-16T16:17:47;1.60;;;1.30;;
74108;SDS011;62466;47.566;7.786;2022-10-16T16:20:13;1.90;;;1.50;;
74108;SDS011;62466;47.566;7.786;2022-10-16T16:22:40;3.17;;;1.30;;
74108;SDS011;62466;47.566;7.786;2022-10-16T16:25:05;2.08;;;1.55;;
74108;SDS011;62466;47.566;7.786;2022-10-16T16:27:31;1.23;;;1.13;;
74108;SDS011;62466;47.566;7.786;2022-10-16T16:29:59;1.73;;;1.20;;
74108;SDS011;62466;47.566;7.786;2022-10-16T16:32:26;4.80;;;1.55;;
74108;SDS011;62466;47.566;7.786;2022-10-16T16:34:51;2.22;;;1.60;;
74108;SDS011;62466;47.566;7.786;2022-10-16T16:37:17;2.83;;;2.00;;
74108;SDS011;62466;47.566;7.786;2022-10-16T16:39:43;2.97;;;1.90;;
74108;SDS011;62466;47.566;7.786;2022-10-16T16:42:09;3.03;;;2.65;;
74108;SDS011;62466;47.566;7.786;2022-10-16T16:44:35;2.00;;;1.52;;
74108;SDS011;62466;47.566;7.786;2022-10-16T16:47:02;3.47;;;1.70;;
74108;SDS011;62466;47.566;7.786;2022-10-16T16:49:28;2.60;;;1.80;;
74108;SDS011;62466;47.566;7.786;2022-10-16T16:51:54;3.08;;;1.90;;
74108;SDS011;62466;47.566;7.786;2022-10-16T16:54:20;3.72;;;2.33;;
74108;SDS011;62466;47.566;7.786;2022-10-16T16:56:46;3.13;;;1.83;;
74108;SDS011;62466;47.566;7.786;2022-10-16T16:59:13;4.45;;;2.65;;
74108;SDS011;62466;47.566;7.786;2022-10-16T17:01:41;3.65;;;2.20;;
74108;SDS011;62466;47.566;7.786;2022-10-16T17:04:07;3.53;;;2.20;;
74108;SDS011;62466;47.566;7.786;2022-10-16T17:06:33;4.40;;;2.28;;
74108;SDS011;62466;47.566;7.786;2022-10-16T17:09:00;5.68;;;2.00;;
74108;SDS011;62466;47.566;7.786;2022-10-16T17:11:28;3.67;;;2.30;;
74108;SDS011;62466;47.566;7.786;2022-10-16T17:13:54;5.35;;;2.45;;
74108;SDS011;62466;47.566;7.786;2022-10-16T17:16:25;3.35;;;2.22;;
74108;SDS011;62466;47.566;7.786;2022-10-16T17:18:52;4.38;;;2.30;;
74108;SDS011;62466;47.566;7.786;2022-10-16T17:21:18;5.85;;;2.30;;
74108;SDS011;62466;47.566;7.786;2022-10-16T17:23:44;2.28;;;2.08;;
74108;SDS011;62466;47.566;7.786;2022-10-16T17:26:15;3.70;;;2.10;;
74108;SDS011;62466;47.566;7.786;2022-10-16T17:33:33;2.40;;;1.92;;
74108;SDS011;62466;47.566;7.786;2022-10-16T17:35:58;3.60;;;2.17;;
74108;SDS011;62466;47.566;7.786;2022-10-16T17:38:24;4.50;;;1.98;;
74108;SDS011;62466;47.566;7.786;2022-10-16T17:40:50;2.38;;;1.70;;